sensor_id;sensor_type;location;lat;lon;timestamp;P1;durP1;ratioP1;P2;durP2;ratioP2
24357;SDS011;13668;52.154;5.580;2023-05-07T00:00:17;3.00;;;2.72;;
24357;SDS011;13668;52.154;5.580;2023-05-07T00:02:46;3.05;;;2.67;;
24357;SDS011;13668;52.154;5.580;2023-05-07T00:05:12;3.90;;;2.80;;
24357;SDS011;13668;52.154;5.580;2023-05-07T00:07:39;2.40;;;2.20;;
24357;SDS011;13668;52.154;5.580;2023-05-07T00:10:05;3.15;;;2.95;;
24357;SDS011;13668;52.154;5.580;2023-05-07T00:12:31;3.65;;;2.85;;
24357;SDS011;13668;52.154;5.580;2023-05-07T00:15:03;3.13;;;2.63;;
24357;SDS011;13668;52.154;5.580;2023-05-07T00:17:30;3.00;;;2.70;;
24357;SDS011;13668;52.154;5.580;2023-05-07T00:19:56;3.63;;;3.33;;
24357;SDS011;13668;52.154;5.580;2023-05-07T00:22:22;2.75;;;2.55;;
24357;SDS011;13668;52.154;5.580;2023-05-07T00:24:48;4.10;;;3.47;;
24357;SDS011;13668;52.154;5.580;2023-05-07T00:27:14;3.40;;;3.10;;
24357;SDS011;13668;52.154;5.580;2023-05-07T00:29:40;3.63;;;3.33;;
24357;SDS011;13668;52.154;5.580;2023-05-07T00:32:06;3.28;;;2.97;;
24357;SDS011;13668;52.154;5.580;2023-05-07T00:34:32;3.88;;;3.47;;
24357;SDS011;13668;52.154;5.580;2023-05-07T00:36:58;3.22;;;2.90;;
24357;SDS011;13668;52.154;5.580;2023-05-07T00:39:24;3.13;;;2.90;;
24357;SDS011;13668;52.154;5.580;2023-05-07T00:41:50;5.00;;;3.58;;
24357;SDS011;13668;52.154;5.580;2023-05-07T00:44:16;3.55;;;3.25;;
24357;SDS011;13668;52.154;5.580;2023-05-07T00:46:43;3.10;;;2.80;;
24357;SDS011;13668;52.154;5.580;2023-05-07T00:49:09;3.70;;;2.75;;
24357;SDS011;13668;52.154;5.580;2023-05-07T00:51:36;3.38;;;3.00;;
24357;SDS011;13668;52.154;5.580;2023-05-07T00:54:02;2.72;;;2.53;;
24357;SDS011;13668;52.154;5.580;2023-05-07T00:56:28;3.17;;;2.88;;
24357;SDS011;13668;52.154;5.580;2023-05-07T00:58:54;3.80;;;3.50;;
24357;SDS011;13668;52.154;5.580;2023-05-07T01:01:20;5.18;;;3.60;;
24357;SDS011;13668;52.154;5.580;2023-05-07T01:03:46;3.78;;;3.33;;
24357;SDS011;13668;52.154;5.580;2023-05-07T01:06:12;4.00;;;3.60;;
24357;SDS011;13668;52.154;5.580;2023-05-07T01:08:41;3.38;;;3.08;;
24357;SDS011;13668;52.154;5.580;2023-05-07T01:11:07;4.22;;;3.35;;
24357;SDS011;13668;52.154;5.580;2023-05-07T01:13:34;3.97;;;3.53;;
24357;SDS011;13668;52.154;5.580;2023-05-07T01:16:04;3.45;;;3.15;;
24357;SDS011;13668;52.154;5.580;2023-05-07T01:18:30;3.97;;;3.47;;
24357;SDS011;13668;52.154;5.580;2023-05-07T01:20:56;3.80;;;3.50;;
24357;SDS011;13668;52.154;5.580;2023-05-07T01:23:24;4.32;;;3.53;;
24357;SDS011;13668;52.154;5.580;2023-05-07T01:25:51;3.83;;;3.35;;
24357;SDS011;13668;52.154;5.580;2023-05-07T01:28:18;4.22;;;3.83;;
24357;SDS011;13668;52.154;5.580;2023-05-07T01:30:44;5.07;;;3.45;;
24357;SDS011;13668;52.154;5.580;2023-05-07T01:33:13;3.63;;;3.33;;
24357;SDS011;13668;52.154;5.580;2023-05-07T01:35:42;4.25;;;3.63;;
24357;SDS011;13668;52.154;5.580;2023-05-07T01:38:09;4.10;;;3.47;;
24357;SDS011;13668;52.154;5.580;2023-05-07T01:40:35;3.42;;;3.13;;
24357;SDS011;13668;52.154;5.580;2023-05-07T01:43:02;3.53;;;3.22;;
24357;SDS011;13668;52.154;5.580;2023-05-07T01:45:29;4.55;;;3.80;;
24357;SDS011;13668;52.154;5.580;2023-05-07T01:47:56;4.53;;;4.10;;
24357;SDS011;13668;52.154;5.580;2023-05-07T01:50:23;6.13;;;4.45;;
24357;SDS011;13668;52.154;5.580;2023-05-07T01:52:51;4.30;;;3.75;;
24357;SDS011;13668;52.154;5.580;2023-05-07T01:55:17;3.85;;;3.33;;
24357;SDS011;13668;52.154;5.580;2023-05-07T01:57:43;4.15;;;3.70;;
24357;SDS011;13668;52.154;5.580;2023-05-07T02:00:09;4.10;;;3.55;;
24357;SDS011;13668;52.154;5.580;2023-05-07T02:02:35;4.53;;;4.00;;
24357;SDS011;13668;52.154;5.580;2023-05-07T02:05:01;3.83;;;3.38;;
24357;SDS011;13668;52.154;5.580;2023-05-07T02:07:27;4.40;;;4.05;;
24357;SDS011;13668;52.154;5.580;2023-05-07T02:09:53;4.30;;;3.90;;
24357;SDS011;13668;52.154;5.580;2023-05-07T02:12:20;2.80;;;2.60;;
24357;SDS011;13668;52.154;5.580;2023-05-07T02:14:46;4.00;;;3.63;;
24357;SDS011;13668;52.154;5.580;2023-05-07T02:17:12;3.70;;;3.40;;
24357;SDS011;13668;52.154;5.580;2023-05-07T02:19:38;4.90;;;3.97;;
24357;SDS011;13668;52.154;5.580;2023-05-07T02:22:04;4.40;;;3.35;;
24357;SDS011;13668;52.154;5.580;2023-05-07T02:24:30;4.28;;;3.53;;
24357;SDS011;13668;52.154;5.580;2023-05-07T02:26:56;3.92;;;3.55;;
24357;SDS011;13668;52.154;5.580;2023-05-07T02:29:22;4.07;;;3.67;;
24357;SDS011;13668;52.154;5.580;2023-05-07T02:31:48;4.18;;;3.75;;
24357;SDS011;13668;52.154;5.580;2023-05-07T02:34:16;4.13;;;3.42;;
24357;SDS011;13668;52.154;5.580;2023-05-07T02:36:42;5.40;;;4.10;;
24357;SDS011;13668;52.154;5.580;2023-05-07T02:39:08;5.85;;;3.35;;
24357;SDS011;13668;52.154;5.580;2023-05-07T02:41:34;4.03;;;3.63;;
24357;SDS011;13668;52.154;5.580;2023-05-07T02:43:59;5.20;;;3.90;;
24357;SDS011;13668;52.154;5.580;2023-05-07T02:46:25;4.53;;;4.10;;
24357;SDS011;13668;52.154;5.580;2023-05-07T02:48:51;4.22;;;3.45;;
24357;SDS011;13668;52.154;5.580;2023-05-07T02:51:19;7.10;;;3.97;;
24357;SDS011;13668;52.154;5.580;2023-05-07T02:53:45;4.00;;;3.67;;
24357;SDS011;13668;52.154;5.580;2023-05-07T02:56:11;4.30;;;3.90;;
24357;SDS011;13668;52.154;5.580;2023-05-07T02:58:37;5.45;;;4.20;;
24357;SDS011;13668;52.154;5.580;2023-05-07T03:01:09;4.80;;;3.95;;
24357;SDS011;13668;52.154;5.580;2023-05-07T03:03:35;4.50;;;4.10;;
24357;SDS011;13668;52.154;5.580;2023-05-07T03:06:01;4.45;;;4.05;;
24357;SDS011;13668;52.154;5.580;2023-05-07T03:08:27;4.57;;;4.13;;
24357;SDS011;13668;52.154;5.580;2023-05-07T03:10:53;5.05;;;4.18;;
24357;SDS011;13668;52.154;5.580;2023-05-07T03:13:19;4.55;;;3.95;;
24357;SDS011;13668;52.154;5.580;2023-05-07T03:15:45;4.53;;;4.10;;
24357;SDS011;13668;52.154;5.580;2023-05-07T03:18:11;4.40;;;3.97;;
24357;SDS011;13668;52.154;5.580;2023-05-07T03:20:37;4.82;;;3.92;;
24357;SDS011;13668;52.154;5.580;2023-05-07T03:23:03;5.38;;;4.25;;
24357;SDS011;13668;52.154;5.580;2023-05-07T03:25:29;4.05;;;3.65;;
24357;SDS011;13668;52.154;5.580;2023-05-07T03:27:55;6.28;;;4.78;;
24357;SDS011;13668;52.154;5.580;2023-05-07T03:30:21;4.30;;;3.80;;
24357;SDS011;13668;52.154;5.580;2023-05-07T03:32:50;4.75;;;4.13;;
24357;SDS011;13668;52.154;5.580;2023-05-07T03:35:16;5.93;;;4.05;;
24357;SDS011;13668;52.154;5.580;2023-05-07T03:37:42;6.10;;;4.43;;
24357;SDS011;13668;52.154;5.580;2023-05-07T03:40:08;5.15;;;3.83;;
24357;SDS011;13668;52.154;5.580;2023-05-07T03:42:35;4.55;;;4.13;;
24357;SDS011;13668;52.154;5.580;2023-05-07T03:45:01;5.70;;;4.50;;
24357;SDS011;13668;52.154;5.580;2023-05-07T03:47:27;5.28;;;4.63;;
24357;SDS011;13668;52.154;5.580;2023-05-07T03:49:53;5.85;;;4.57;;
24357;SDS011;13668;52.154;5.580;2023-05-07T03:52:19;5.78;;;4.25;;
24357;SDS011;13668;52.154;5.580;2023-05-07T03:54:49;5.07;;;4.32;;
24357;SDS011;13668;52.154;5.580;2023-05-07T03:57:15;4.43;;;3.83;;
24357;SDS011;13668;52.154;5.580;2023-05-07T03:59:41;5.15;;;4.55;;
24357;SDS011;13668;52.154;5.580;2023-05-07T04:02:07;4.68;;;4.25;;
24357;SDS011;13668;52.154;5.580;2023-05-07T04:04:33;7.13;;;5.00;;
24357;SDS011;13668;52.154;5.580;2023-05-07T04:06:59;4.88;;;4.07;;
24357;SDS011;13668;52.154;5.580;2023-05-07T04:09:25;5.70;;;4.70;;
24357;SDS011;13668;52.154;5.580;2023-05-07T04:11:51;6.50;;;5.20;;
24357;SDS011;13668;52.154;5.580;2023-05-07T04:14:17;5.00;;;4.50;;
24357;SDS011;13668;52.154;5.580;2023-05-07T04:16:43;5.82;;;4.57;;
24357;SDS011;13668;52.154;5.580;2023-05-07T04:19:09;6.55;;;4.60;;
24357;SDS011;13668;52.154;5.580;2023-05-07T04:21:35;5.78;;;4.72;;
24357;SDS011;13668;52.154;5.580;2023-05-07T04:24:02;7.45;;;4.78;;
24357;SDS011;13668;52.154;5.580;2023-05-07T04:26:28;6.10;;;4.80;;
24357;SDS011;13668;52.154;5.580;2023-05-07T04:28:55;9.00;;;5.32;;
24357;SDS011;13668;52.154;5.580;2023-05-07T04:31:22;6.68;;;5.65;;
24357;SDS011;13668;52.154;5.580;2023-05-07T04:33:48;7.20;;;5.55;;
24357;SDS011;13668;52.154;5.580;2023-05-07T04:36:15;6.45;;;5.07;;
24357;SDS011;13668;52.154;5.580;2023-05-07T04:38:41;8.02;;;6.25;;
24357;SDS011;13668;52.154;5.580;2023-05-07T04:41:08;6.75;;;5.45;;
24357;SDS011;13668;52.154;5.580;2023-05-07T04:43:34;8.50;;;6.28;;
24357;SDS011;13668;52.154;5.580;2023-05-07T04:46:00;7.10;;;5.88;;
24357;SDS011;13668;52.154;5.580;2023-05-07T04:48:26;8.98;;;6.80;;
24357;SDS011;13668;52.154;5.580;2023-05-07T04:50:53;9.35;;;5.95;;
24357;SDS011;13668;52.154;5.580;2023-05-07T04:53:19;9.07;;;6.05;;
24357;SDS011;13668;52.154;5.580;2023-05-07T04:55:46;10.50;;;5.68;;
24357;SDS011;13668;52.154;5.580;2023-05-07T04:58:12;6.28;;;5.32;;
24357;SDS011;13668;52.154;5.580;2023-05-07T05:00:38;8.85;;;6.88;;
24357;SDS011;13668;52.154;5.580;2023-05-07T05:03:04;7.13;;;5.80;;
24357;SDS011;13668;52.154;5.580;2023-05-07T05:05:30;9.77;;;7.40;;
24357;SDS011;13668;52.154;5.580;2023-05-07T05:07:56;8.85;;;6.40;;
24357;SDS011;13668;52.154;5.580;2023-05-07T05:10:22;7.88;;;5.88;;
24357;SDS011;13668;52.154;5.580;2023-05-07T05:12:48;10.27;;;6.35;;
24357;SDS011;13668;52.154;5.580;2023-05-07T05:15:14;8.80;;;7.25;;
24357;SDS011;13668;52.154;5.580;2023-05-07T05:17:40;8.63;;;6.47;;
24357;SDS011;13668;52.154;5.580;2023-05-07T05:20:06;11.23;;;7.88;;
24357;SDS011;13668;52.154;5.580;2023-05-07T05:22:34;10.98;;;6.88;;
24357;SDS011;13668;52.154;5.580;2023-05-07T05:25:00;7.80;;;6.65;;
24357;SDS011;13668;52.154;5.580;2023-05-07T05:27:26;9.13;;;7.28;;
24357;SDS011;13668;52.154;5.580;2023-05-07T05:29:52;9.25;;;7.80;;
24357;SDS011;13668;52.154;5.580;2023-05-07T05:32:18;10.02;;;7.47;;
24357;SDS011;13668;52.154;5.580;2023-05-07T05:34:44;9.80;;;8.07;;
24357;SDS011;13668;52.154;5.580;2023-05-07T05:37:10;9.23;;;6.82;;
24357;SDS011;13668;52.154;5.580;2023-05-07T05:39:36;8.32;;;6.57;;
24357;SDS011;13668;52.154;5.580;2023-05-07T05:42:02;8.82;;;7.07;;
24357;SDS011;13668;52.154;5.580;2023-05-07T05:44:28;9.85;;;7.00;;
24357;SDS011;13668;52.154;5.580;2023-05-07T05:46:54;12.13;;;8.38;;
24357;SDS011;13668;52.154;5.580;2023-05-07T05:49:22;10.73;;;7.60;;
24357;SDS011;13668;52.154;5.580;2023-05-07T05:51:48;8.25;;;7.13;;
24357;SDS011;13668;52.154;5.580;2023-05-07T05:54:14;9.88;;;6.10;;
24357;SDS011;13668;52.154;5.580;2023-05-07T05:56:41;8.73;;;7.15;;
24357;SDS011;13668;52.154;5.580;2023-05-07T05:59:07;11.07;;;7.38;;
24357;SDS011;13668;52.154;5.580;2023-05-07T06:01:33;9.77;;;7.38;;
24357;SDS011;13668;52.154;5.580;2023-05-07T06:03:59;10.15;;;7.65;;
24357;SDS011;13668;52.154;5.580;2023-05-07T06:06:25;9.18;;;7.35;;
24357;SDS011;13668;52.154;5.580;2023-05-07T06:08:52;9.90;;;6.70;;
24357;SDS011;13668;52.154;5.580;2023-05-07T06:11:18;8.55;;;6.55;;
24357;SDS011;13668;52.154;5.580;2023-05-07T06:13:44;9.80;;;7.05;;
24357;SDS011;13668;52.154;5.580;2023-05-07T06:16:10;8.55;;;6.93;;
24357;SDS011;13668;52.154;5.580;2023-05-07T06:18:36;8.80;;;7.18;;
24357;SDS011;13668;52.154;5.580;2023-05-07T06:21:02;9.88;;;7.60;;
24357;SDS011;13668;52.154;5.580;2023-05-07T06:23:32;9.27;;;6.93;;
24357;SDS011;13668;52.154;5.580;2023-05-07T06:25:57;9.57;;;7.05;;
24357;SDS011;13668;52.154;5.580;2023-05-07T06:28:23;11.88;;;7.38;;
24357;SDS011;13668;52.154;5.580;2023-05-07T06:30:49;13.25;;;7.57;;
24357;SDS011;13668;52.154;5.580;2023-05-07T06:33:15;9.05;;;7.57;;
24357;SDS011;13668;52.154;5.580;2023-05-07T06:35:41;10.60;;;7.55;;
24357;SDS011;13668;52.154;5.580;2023-05-07T06:38:07;9.25;;;7.47;;
24357;SDS011;13668;52.154;5.580;2023-05-07T06:40:33;9.90;;;7.47;;
24357;SDS011;13668;52.154;5.580;2023-05-07T06:42:59;10.93;;;7.28;;
24357;SDS011;13668;52.154;5.580;2023-05-07T06:45:25;9.18;;;7.30;;
24357;SDS011;13668;52.154;5.580;2023-05-07T06:47:51;9.77;;;8.20;;
24357;SDS011;13668;52.154;5.580;2023-05-07T06:50:17;11.88;;;8.40;;
24357;SDS011;13668;52.154;5.580;2023-05-07T06:52:43;10.25;;;8.38;;
24357;SDS011;13668;52.154;5.580;2023-05-07T06:55:09;10.18;;;6.80;;
24357;SDS011;13668;52.154;5.580;2023-05-07T06:57:36;11.10;;;7.68;;
24357;SDS011;13668;52.154;5.580;2023-05-07T07:00:02;10.45;;;7.50;;
24357;SDS011;13668;52.154;5.580;2023-05-07T07:02:29;8.57;;;6.82;;
24357;SDS011;13668;52.154;5.580;2023-05-07T07:04:55;8.70;;;6.90;;
24357;SDS011;13668;52.154;5.580;2023-05-07T07:07:21;9.45;;;6.85;;
24357;SDS011;13668;52.154;5.580;2023-05-07T07:09:47;9.20;;;6.97;;
24357;SDS011;13668;52.154;5.580;2023-05-07T07:12:13;10.02;;;7.20;;
24357;SDS011;13668;52.154;5.580;2023-05-07T07:14:39;9.85;;;7.50;;
24357;SDS011;13668;52.154;5.580;2023-05-07T07:17:05;10.52;;;7.97;;
24357;SDS011;13668;52.154;5.580;2023-05-07T07:19:31;9.60;;;7.15;;
24357;SDS011;13668;52.154;5.580;2023-05-07T07:21:57;8.07;;;7.28;;
24357;SDS011;13668;52.154;5.580;2023-05-07T07:24:23;10.80;;;7.03;;
24357;SDS011;13668;52.154;5.580;2023-05-07T07:26:49;8.90;;;6.88;;
24357;SDS011;13668;52.154;5.580;2023-05-07T07:29:15;13.00;;;7.75;;
24357;SDS011;13668;52.154;5.580;2023-05-07T07:31:41;10.30;;;7.43;;
24357;SDS011;13668;52.154;5.580;2023-05-07T07:34:09;9.80;;;8.10;;
24357;SDS011;13668;52.154;5.580;2023-05-07T07:36:35;11.63;;;8.27;;
24357;SDS011;13668;52.154;5.580;2023-05-07T07:39:01;10.77;;;8.20;;
24357;SDS011;13668;52.154;5.580;2023-05-07T07:41:27;9.93;;;8.05;;
24357;SDS011;13668;52.154;5.580;2023-05-07T07:43:53;8.77;;;7.75;;
24357;SDS011;13668;52.154;5.580;2023-05-07T07:46:19;10.20;;;7.68;;
24357;SDS011;13668;52.154;5.580;2023-05-07T07:48:45;10.85;;;7.90;;
24357;SDS011;13668;52.154;5.580;2023-05-07T07:51:11;9.52;;;8.02;;
24357;SDS011;13668;52.154;5.580;2023-05-07T07:53:37;9.80;;;7.32;;
24357;SDS011;13668;52.154;5.580;2023-05-07T07:56:03;9.93;;;7.82;;
24357;SDS011;13668;52.154;5.580;2023-05-07T07:58:29;10.30;;;8.52;;
24357;SDS011;13668;52.154;5.580;2023-05-07T08:00:55;12.60;;;9.05;;
24357;SDS011;13668;52.154;5.580;2023-05-07T08:03:21;10.93;;;7.55;;
24357;SDS011;13668;52.154;5.580;2023-05-07T08:05:47;10.77;;;8.18;;
24357;SDS011;13668;52.154;5.580;2023-05-07T08:08:16;10.65;;;7.70;;
24357;SDS011;13668;52.154;5.580;2023-05-07T08:10:42;9.27;;;7.32;;
24357;SDS011;13668;52.154;5.580;2023-05-07T08:13:08;8.40;;;7.50;;
24357;SDS011;13668;52.154;5.580;2023-05-07T08:15:34;9.48;;;7.60;;
24357;SDS011;13668;52.154;5.580;2023-05-07T08:18:01;11.07;;;7.95;;
24357;SDS011;13668;52.154;5.580;2023-05-07T08:20:28;9.57;;;7.88;;
24357;SDS011;13668;52.154;5.580;2023-05-07T08:22:54;10.65;;;6.97;;
24357;SDS011;13668;52.154;5.580;2023-05-07T08:25:20;17.17;;;7.65;;
24357;SDS011;13668;52.154;5.580;2023-05-07T08:27:46;9.32;;;6.82;;
24357;SDS011;13668;52.154;5.580;2023-05-07T08:30:12;8.73;;;6.72;;
24357;SDS011;13668;52.154;5.580;2023-05-07T08:32:38;10.27;;;7.80;;
24357;SDS011;13668;52.154;5.580;2023-05-07T08:35:04;13.40;;;7.68;;
24357;SDS011;13668;52.154;5.580;2023-05-07T08:37:30;10.93;;;8.18;;
24357;SDS011;13668;52.154;5.580;2023-05-07T08:39:56;9.23;;;7.20;;
24357;SDS011;13668;52.154;5.580;2023-05-07T08:42:23;9.25;;;6.82;;
24357;SDS011;13668;52.154;5.580;2023-05-07T08:44:52;8.02;;;6.60;;
24357;SDS011;13668;52.154;5.580;2023-05-07T08:47:20;13.30;;;7.43;;
24357;SDS011;13668;52.154;5.580;2023-05-07T08:49:48;9.80;;;6.97;;
24357;SDS011;13668;52.154;5.580;2023-05-07T08:52:15;9.10;;;7.00;;
24357;SDS011;13668;52.154;5.580;2023-05-07T08:54:41;9.95;;;6.88;;
24357;SDS011;13668;52.154;5.580;2023-05-07T08:57:07;7.18;;;6.25;;
24357;SDS011;13668;52.154;5.580;2023-05-07T08:59:33;9.07;;;7.40;;
24357;SDS011;13668;52.154;5.580;2023-05-07T09:02:00;8.95;;;7.13;;
24357;SDS011;13668;52.154;5.580;2023-05-07T09:04:27;9.70;;;7.28;;
24357;SDS011;13668;52.154;5.580;2023-05-07T09:06:53;9.65;;;7.53;;
24357;SDS011;13668;52.154;5.580;2023-05-07T09:09:18;11.38;;;7.95;;
24357;SDS011;13668;52.154;5.580;2023-05-07T09:11:44;11.38;;;8.30;;
24357;SDS011;13668;52.154;5.580;2023-05-07T09:14:10;10.10;;;7.80;;
24357;SDS011;13668;52.154;5.580;2023-05-07T09:16:36;14.45;;;8.80;;
24357;SDS011;13668;52.154;5.580;2023-05-07T09:19:03;10.63;;;7.55;;
24357;SDS011;13668;52.154;5.580;2023-05-07T09:21:29;14.15;;;8.90;;
24357;SDS011;13668;52.154;5.580;2023-05-07T09:23:55;11.00;;;7.38;;
24357;SDS011;13668;52.154;5.580;2023-05-07T09:26:21;11.18;;;8.35;;
24357;SDS011;13668;52.154;5.580;2023-05-07T09:28:48;11.02;;;7.57;;
24357;SDS011;13668;52.154;5.580;2023-05-07T09:31:14;12.88;;;7.40;;
24357;SDS011;13668;52.154;5.580;2023-05-07T09:33:39;11.15;;;7.13;;
24357;SDS011;13668;52.154;5.580;2023-05-07T09:36:06;13.18;;;9.57;;
24357;SDS011;13668;52.154;5.580;2023-05-07T09:38:33;11.07;;;7.72;;
24357;SDS011;13668;52.154;5.580;2023-05-07T09:41:05;12.10;;;7.93;;
24357;SDS011;13668;52.154;5.580;2023-05-07T09:43:32;10.68;;;7.63;;
24357;SDS011;13668;52.154;5.580;2023-05-07T09:46:01;12.30;;;9.10;;
24357;SDS011;13668;52.154;5.580;2023-05-07T09:48:28;12.48;;;8.32;;
24357;SDS011;13668;52.154;5.580;2023-05-07T09:50:55;11.63;;;8.77;;
24357;SDS011;13668;52.154;5.580;2023-05-07T09:53:25;12.25;;;8.02;;
24357;SDS011;13668;52.154;5.580;2023-05-07T09:55:51;13.32;;;9.15;;
24357;SDS011;13668;52.154;5.580;2023-05-07T09:58:18;13.90;;;8.88;;
24357;SDS011;13668;52.154;5.580;2023-05-07T10:00:44;11.23;;;8.07;;
24357;SDS011;13668;52.154;5.580;2023-05-07T10:03:11;10.27;;;8.23;;
24357;SDS011;13668;52.154;5.580;2023-05-07T10:05:39;11.40;;;8.55;;
24357;SDS011;13668;52.154;5.580;2023-05-07T10:08:07;11.50;;;8.35;;
24357;SDS011;13668;52.154;5.580;2023-05-07T10:10:34;11.98;;;8.30;;
24357;SDS011;13668;52.154;5.580;2023-05-07T10:13:01;12.73;;;8.85;;
24357;SDS011;13668;52.154;5.580;2023-05-07T10:15:30;12.98;;;9.13;;
24357;SDS011;13668;52.154;5.580;2023-05-07T10:17:57;13.05;;;8.73;;
24357;SDS011;13668;52.154;5.580;2023-05-07T10:20:23;13.45;;;9.68;;
24357;SDS011;13668;52.154;5.580;2023-05-07T10:22:49;11.80;;;8.20;;
24357;SDS011;13668;52.154;5.580;2023-05-07T10:25:26;12.45;;;8.88;;
24357;SDS011;13668;52.154;5.580;2023-05-07T10:27:54;14.45;;;9.38;;
24357;SDS011;13668;52.154;5.580;2023-05-07T10:30:31;13.15;;;9.00;;
24357;SDS011;13668;52.154;5.580;2023-05-07T10:32:59;14.50;;;9.27;;
24357;SDS011;13668;52.154;5.580;2023-05-07T10:35:31;10.55;;;8.23;;
24357;SDS011;13668;52.154;5.580;2023-05-07T10:37:57;11.45;;;9.15;;
24357;SDS011;13668;52.154;5.580;2023-05-07T10:40:23;12.55;;;8.60;;
24357;SDS011;13668;52.154;5.580;2023-05-07T10:42:52;13.05;;;9.40;;
24357;SDS011;13668;52.154;5.580;2023-05-07T10:45:19;12.07;;;8.85;;
24357;SDS011;13668;52.154;5.580;2023-05-07T10:50:30;11.68;;;8.90;;
24357;SDS011;13668;52.154;5.580;2023-05-07T10:55:40;13.05;;;9.63;;
24357;SDS011;13668;52.154;5.580;2023-05-07T11:00:48;11.60;;;9.25;;
24357;SDS011;13668;52.154;5.580;2023-05-07T11:03:14;10.55;;;8.70;;
24357;SDS011;13668;52.154;5.580;2023-05-07T11:05:40;11.77;;;9.05;;
24357;SDS011;13668;52.154;5.580;2023-05-07T11:08:10;9.77;;;7.70;;
24357;SDS011;13668;52.154;5.580;2023-05-07T11:10:55;13.15;;;9.20;;
24357;SDS011;13668;52.154;5.580;2023-05-07T11:18:47;10.25;;;8.18;;
24357;SDS011;13668;52.154;5.580;2023-05-07T11:21:16;11.18;;;8.25;;
24357;SDS011;13668;52.154;5.580;2023-05-07T11:23:57;11.95;;;8.73;;
24357;SDS011;13668;52.154;5.580;2023-05-07T11:26:23;14.98;;;9.15;;
24357;SDS011;13668;52.154;5.580;2023-05-07T11:28:50;11.23;;;8.25;;
24357;SDS011;13668;52.154;5.580;2023-05-07T11:31:20;10.23;;;8.02;;
24357;SDS011;13668;52.154;5.580;2023-05-07T11:33:46;12.10;;;9.23;;
24357;SDS011;13668;52.154;5.580;2023-05-07T11:36:12;11.98;;;8.38;;
24357;SDS011;13668;52.154;5.580;2023-05-07T11:38:38;10.63;;;8.10;;
24357;SDS011;13668;52.154;5.580;2023-05-07T11:41:04;11.02;;;8.13;;
24357;SDS011;13668;52.154;5.580;2023-05-07T11:43:33;9.27;;;7.22;;
24357;SDS011;13668;52.154;5.580;2023-05-07T11:46:10;10.52;;;7.43;;
24357;SDS011;13668;52.154;5.580;2023-05-07T11:48:36;9.68;;;8.55;;
24357;SDS011;13668;52.154;5.580;2023-05-07T11:51:03;10.73;;;8.07;;
24357;SDS011;13668;52.154;5.580;2023-05-07T11:54:03;8.43;;;7.53;;
24357;SDS011;13668;52.154;5.580;2023-05-07T11:56:21;10.50;;;7.75;;
24357;SDS011;13668;52.154;5.580;2023-05-07T11:58:47;11.02;;;8.38;;
24357;SDS011;13668;52.154;5.580;2023-05-07T12:01:14;10.43;;;8.07;;
24357;SDS011;13668;52.154;5.580;2023-05-07T12:03:41;9.93;;;8.15;;
24357;SDS011;13668;52.154;5.580;2023-05-07T12:06:08;11.68;;;8.40;;
24357;SDS011;13668;52.154;5.580;2023-05-07T12:08:36;11.48;;;8.35;;
24357;SDS011;13668;52.154;5.580;2023-05-07T12:11:02;10.93;;;8.25;;
24357;SDS011;13668;52.154;5.580;2023-05-07T12:13:28;11.57;;;8.40;;
24357;SDS011;13668;52.154;5.580;2023-05-07T12:15:55;11.23;;;7.95;;
24357;SDS011;13668;52.154;5.580;2023-05-07T12:18:21;9.43;;;6.82;;
24357;SDS011;13668;52.154;5.580;2023-05-07T12:20:48;10.18;;;8.10;;
24357;SDS011;13668;52.154;5.580;2023-05-07T12:23:14;9.65;;;7.70;;
24357;SDS011;13668;52.154;5.580;2023-05-07T12:25:40;11.27;;;8.38;;
24357;SDS011;13668;52.154;5.580;2023-05-07T12:28:16;10.48;;;7.53;;
24357;SDS011;13668;52.154;5.580;2023-05-07T12:30:43;11.63;;;8.10;;
24357;SDS011;13668;52.154;5.580;2023-05-07T12:33:09;11.90;;;8.05;;
24357;SDS011;13668;52.154;5.580;2023-05-07T12:35:36;12.20;;;8.82;;
24357;SDS011;13668;52.154;5.580;2023-05-07T12:38:06;8.20;;;6.68;;
24357;SDS011;13668;52.154;5.580;2023-05-07T12:40:37;10.63;;;7.70;;
24357;SDS011;13668;52.154;5.580;2023-05-07T12:43:03;10.90;;;8.32;;
24357;SDS011;13668;52.154;5.580;2023-05-07T12:45:29;10.10;;;8.43;;
24357;SDS011;13668;52.154;5.580;2023-05-07T12:47:55;10.13;;;7.32;;
24357;SDS011;13668;52.154;5.580;2023-05-07T12:50:22;11.80;;;7.75;;
24357;SDS011;13668;52.154;5.580;2023-05-07T12:52:48;12.23;;;7.38;;
24357;SDS011;13668;52.154;5.580;2023-05-07T12:55:15;11.88;;;8.57;;
24357;SDS011;13668;52.154;5.580;2023-05-07T12:57:42;12.02;;;8.40;;
24357;SDS011;13668;52.154;5.580;2023-05-07T13:00:08;10.93;;;8.90;;
24357;SDS011;13668;52.154;5.580;2023-05-07T13:02:38;11.13;;;7.65;;
24357;SDS011;13668;52.154;5.580;2023-05-07T13:05:04;10.75;;;7.55;;
24357;SDS011;13668;52.154;5.580;2023-05-07T13:07:30;10.40;;;6.80;;
24357;SDS011;13668;52.154;5.580;2023-05-07T13:09:56;10.80;;;7.53;;
24357;SDS011;13668;52.154;5.580;2023-05-07T13:12:25;9.43;;;8.18;;
24357;SDS011;13668;52.154;5.580;2023-05-07T13:14:51;10.65;;;7.90;;
24357;SDS011;13668;52.154;5.580;2023-05-07T13:17:17;10.82;;;8.00;;
24357;SDS011;13668;52.154;5.580;2023-05-07T13:19:43;10.50;;;8.10;;
24357;SDS011;13668;52.154;5.580;2023-05-07T13:22:09;12.75;;;9.40;;
24357;SDS011;13668;52.154;5.580;2023-05-07T13:24:35;11.13;;;7.65;;
24357;SDS011;13668;52.154;5.580;2023-05-07T13:27:01;9.98;;;6.50;;
24357;SDS011;13668;52.154;5.580;2023-05-07T13:29:28;9.95;;;7.05;;
24357;SDS011;13668;52.154;5.580;2023-05-07T13:31:56;8.77;;;7.43;;
24357;SDS011;13668;52.154;5.580;2023-05-07T13:34:22;9.70;;;7.15;;
24357;SDS011;13668;52.154;5.580;2023-05-07T13:36:48;10.30;;;7.45;;
24357;SDS011;13668;52.154;5.580;2023-05-07T13:39:14;9.30;;;6.88;;
24357;SDS011;13668;52.154;5.580;2023-05-07T13:41:40;10.05;;;7.80;;
24357;SDS011;13668;52.154;5.580;2023-05-07T13:44:06;11.45;;;7.68;;
24357;SDS011;13668;52.154;5.580;2023-05-07T13:46:32;8.55;;;6.55;;
24357;SDS011;13668;52.154;5.580;2023-05-07T13:48:58;7.68;;;5.97;;
24357;SDS011;13668;52.154;5.580;2023-05-07T13:51:24;6.85;;;5.20;;
24357;SDS011;13668;52.154;5.580;2023-05-07T13:53:50;7.22;;;4.88;;
24357;SDS011;13668;52.154;5.580;2023-05-07T13:56:17;6.13;;;5.47;;
24357;SDS011;13668;52.154;5.580;2023-05-07T13:58:43;6.15;;;5.00;;
24357;SDS011;13668;52.154;5.580;2023-05-07T14:01:09;6.25;;;4.47;;
24357;SDS011;13668;52.154;5.580;2023-05-07T14:03:35;7.25;;;4.70;;
24357;SDS011;13668;52.154;5.580;2023-05-07T14:06:03;6.75;;;5.07;;
24357;SDS011;13668;52.154;5.580;2023-05-07T14:08:28;7.40;;;5.35;;
24357;SDS011;13668;52.154;5.580;2023-05-07T14:10:54;7.20;;;6.03;;
24357;SDS011;13668;52.154;5.580;2023-05-07T14:13:20;8.90;;;5.63;;
24357;SDS011;13668;52.154;5.580;2023-05-07T14:15:46;7.20;;;5.10;;
24357;SDS011;13668;52.154;5.580;2023-05-07T14:18:14;7.88;;;5.28;;
24357;SDS011;13668;52.154;5.580;2023-05-07T14:20:40;9.15;;;6.05;;
24357;SDS011;13668;52.154;5.580;2023-05-07T14:23:08;7.88;;;5.03;;
24357;SDS011;13668;52.154;5.580;2023-05-07T14:25:34;8.13;;;5.63;;
24357;SDS011;13668;52.154;5.580;2023-05-07T14:28:00;6.40;;;5.38;;
24357;SDS011;13668;52.154;5.580;2023-05-07T14:30:26;8.63;;;5.88;;
24357;SDS011;13668;52.154;5.580;2023-05-07T14:32:52;8.98;;;6.05;;
24357;SDS011;13668;52.154;5.580;2023-05-07T14:35:18;6.32;;;5.65;;
24357;SDS011;13668;52.154;5.580;2023-05-07T14:37:44;7.85;;;6.20;;
24357;SDS011;13668;52.154;5.580;2023-05-07T14:40:10;8.00;;;6.63;;
24357;SDS011;13668;52.154;5.580;2023-05-07T14:42:36;7.25;;;6.15;;
24357;SDS011;13668;52.154;5.580;2023-05-07T14:45:02;8.90;;;5.90;;
24357;SDS011;13668;52.154;5.580;2023-05-07T14:47:28;8.00;;;6.50;;
24357;SDS011;13668;52.154;5.580;2023-05-07T14:49:54;9.45;;;6.90;;
24357;SDS011;13668;52.154;5.580;2023-05-07T14:52:22;5.78;;;5.18;;